createdAt,value
2022-10-06T00:00:06.749Z,14.22
2022-10-06T00:01:06.816Z,14.23
2022-10-06T00:02:06.719Z,14.26
2022-10-06T00:03:06.720Z,14.29
2022-10-06T00:04:06.721Z,14.30
2022-10-06T00:05:06.688Z,14.32
2022-10-06T00:06:06.682Z,14.36
2022-10-06T00:07:06.660Z,14.37
2022-10-06T00:08:09.948Z,14.37
2022-10-06T00:09:06.661Z,14.41
2022-10-06T00:10:06.637Z,14.43
2022-10-06T00:11:06.616Z,14.44
2022-10-06T00:12:06.610Z,14.44
2022-10-06T00:13:06.589Z,14.45
2022-10-06T00:14:06.611Z,14.47
2022-10-06T00:15:06.578Z,14.45
2022-10-06T00:16:06.582Z,14.48
2022-10-06T00:17:06.556Z,14.48
2022-10-06T00:18:06.540Z,14.48
2022-10-06T00:19:06.526Z,14.48
2022-10-06T00:20:06.596Z,14.47
2022-10-06T00:21:06.512Z,14.47
2022-10-06T00:22:06.539Z,14.45
2022-10-06T00:23:06.490Z,14.44
2022-10-06T00:24:06.474Z,14.43
2022-10-06T00:25:06.469Z,14.37
2022-10-06T00:26:06.497Z,14.37
2022-10-06T00:27:06.480Z,14.35
2022-10-06T00:28:06.503Z,14.36
2022-10-06T00:29:06.411Z,14.35
2022-10-06T00:30:06.416Z,14.33
2022-10-06T00:31:06.442Z,14.33
2022-10-06T00:32:06.385Z,14.32
2022-10-06T00:33:06.416Z,14.32
2022-10-06T00:34:06.369Z,14.32
2022-10-06T00:35:06.347Z,14.30
2022-10-06T00:36:06.350Z,14.29
2022-10-06T00:37:06.324Z,14.26
2022-10-06T00:38:06.337Z,14.25
2022-10-06T00:39:06.324Z,14.23
2022-10-06T00:40:06.304Z,14.20
2022-10-06T00:41:07.236Z,14.20
2022-10-06T00:42:06.268Z,14.22
2022-10-06T00:43:06.257Z,14.20
2022-10-06T00:44:06.280Z,14.22
2022-10-06T00:45:06.250Z,14.23
2022-10-06T00:46:06.289Z,14.22
2022-10-06T00:47:06.229Z,14.18
2022-10-06T00:48:06.211Z,14.18
2022-10-06T00:49:06.238Z,14.17
2022-10-06T00:50:07.146Z,14.14
2022-10-06T00:51:06.182Z,14.12
2022-10-06T00:52:06.163Z,14.11
2022-10-06T00:53:06.144Z,14.10
2022-10-06T00:54:06.140Z,14.08
2022-10-06T00:55:06.154Z,14.07
2022-10-06T00:56:06.134Z,14.07
2022-10-06T00:57:06.103Z,14.05
2022-10-06T00:58:06.097Z,14.05
2022-10-06T00:59:06.096Z,14.05
2022-10-06T01:00:06.087Z,14.05
2022-10-06T01:01:06.080Z,14.00
2022-10-06T01:02:06.182Z,13.99
2022-10-06T01:03:06.079Z,13.97
2022-10-06T01:04:06.092Z,13.95
2022-10-06T01:05:06.015Z,13.92
2022-10-06T01:06:06.009Z,13.89
2022-10-06T01:07:05.997Z,13.87
2022-10-06T01:08:06.026Z,13.87
2022-10-06T01:09:05.965Z,13.85
2022-10-06T01:10:05.963Z,13.86
2022-10-06T01:11:05.945Z,13.86
2022-10-06T01:12:05.951Z,13.85
2022-10-06T01:13:05.948Z,13.86
2022-10-06T01:14:05.918Z,13.86
2022-10-06T01:15:05.898Z,13.86
2022-10-06T01:16:05.954Z,13.86
2022-10-06T01:17:05.892Z,13.86
2022-10-06T01:18:05.923Z,13.89
2022-10-06T01:19:05.869Z,13.89
2022-10-06T01:20:05.850Z,13.90
2022-10-06T01:21:05.863Z,13.93
2022-10-06T01:22:05.831Z,13.93
2022-10-06T01:23:05.816Z,13.92
2022-10-06T01:24:05.831Z,13.92
2022-10-06T01:25:05.793Z,13.92
2022-10-06T01:26:05.781Z,13.93
2022-10-06T01:27:06.753Z,13.93
2022-10-06T01:28:05.900Z,13.95
2022-10-06T01:29:05.750Z,13.96
2022-10-06T01:30:05.771Z,13.93
2022-10-06T01:31:05.764Z,13.95
2022-10-06T01:32:05.712Z,13.93
2022-10-06T01:33:05.723Z,13.93
2022-10-06T01:34:05.703Z,13.96
2022-10-06T01:35:05.677Z,13.96
2022-10-06T01:36:05.675Z,13.95
2022-10-06T01:37:05.673Z,13.95
2022-10-06T01:38:05.953Z,13.95
2022-10-06T01:39:05.635Z,13.95
2022-10-06T01:40:05.635Z,13.93
2022-10-06T01:41:05.605Z,13.93
2022-10-06T01:42:05.601Z,13.92
2022-10-06T01:43:05.603Z,13.93
2022-10-06T01:44:05.628Z,13.93
2022-10-06T01:45:05.576Z,13.93
2022-10-06T01:46:05.656Z,13.93
2022-10-06T01:47:05.538Z,13.92
2022-10-06T01:48:05.547Z,13.90
2022-10-06T01:49:05.538Z,13.89
2022-10-06T01:50:05.513Z,13.89
2022-10-06T01:51:05.513Z,13.87
2022-10-06T01:52:05.490Z,13.87
2022-10-06T01:53:05.498Z,13.89
2022-10-06T01:54:05.489Z,13.87
2022-10-06T01:55:05.448Z,13.86
2022-10-06T01:56:05.441Z,13.87
2022-10-06T01:57:05.428Z,13.86
2022-10-06T01:58:05.475Z,13.86
2022-10-06T01:59:05.409Z,13.86
2022-10-06T02:00:05.420Z,13.86
2022-10-06T02:01:05.399Z,13.85
2022-10-06T02:02:05.460Z,13.85
2022-10-06T02:03:05.362Z,13.85
2022-10-06T02:04:05.465Z,13.81
2022-10-06T02:05:05.351Z,13.79
2022-10-06T02:06:05.379Z,13.79
2022-10-06T02:07:05.459Z,13.77
2022-10-06T02:08:06.282Z,13.77
2022-10-06T02:09:05.295Z,13.74
2022-10-06T02:10:05.308Z,13.72
2022-10-06T02:11:05.274Z,13.72
2022-10-06T02:12:05.274Z,13.74
2022-10-06T02:13:05.532Z,13.72
2022-10-06T02:14:05.249Z,13.71
2022-10-06T02:15:05.235Z,13.72
2022-10-06T02:16:05.280Z,13.72
2022-10-06T02:17:05.206Z,13.74
2022-10-06T02:18:05.249Z,13.72
2022-10-06T02:19:05.195Z,13.71
2022-10-06T02:20:05.180Z,13.70
2022-10-06T02:21:05.166Z,13.68
2022-10-06T02:22:05.164Z,13.68
2022-10-06T02:23:05.138Z,13.67
2022-10-06T02:24:06.117Z,13.68
2022-10-06T02:25:05.137Z,13.68
2022-10-06T02:26:05.117Z,13.68
2022-10-06T02:27:05.098Z,13.68
2022-10-06T02:28:05.118Z,13.67
2022-10-06T02:29:05.077Z,13.70
2022-10-06T02:30:05.481Z,13.70
2022-10-06T02:31:05.111Z,13.70
2022-10-06T02:32:05.039Z,13.70
2022-10-06T02:33:05.237Z,13.70
2022-10-06T02:34:05.028Z,13.68
2022-10-06T02:35:05.005Z,13.70
2022-10-06T02:36:05.039Z,13.70
2022-10-06T02:37:04.981Z,13.70
2022-10-06T02:38:04.978Z,13.71
2022-10-06T02:39:04.957Z,13.71
2022-10-06T02:40:04.955Z,13.72
2022-10-06T02:41:06.158Z,13.74
2022-10-06T02:42:04.935Z,13.75
2022-10-06T02:43:04.947Z,13.74
2022-10-06T02:44:04.915Z,13.74
2022-10-06T02:45:04.923Z,13.72
2022-10-06T02:46:04.978Z,13.72
2022-10-06T02:47:05.409Z,13.72
2022-10-06T02:48:04.869Z,13.70
2022-10-06T02:49:04.896Z,13.68
2022-10-06T02:50:04.845Z,13.67
2022-10-06T02:51:04.838Z,13.68
2022-10-06T02:52:04.824Z,13.65
2022-10-06T02:53:04.805Z,13.63
2022-10-06T02:54:04.804Z,13.63
2022-10-06T02:55:05.173Z,13.62
2022-10-06T02:56:04.765Z,13.60
2022-10-06T02:57:04.766Z,13.62
2022-10-06T02:58:04.785Z,13.60
2022-10-06T02:59:05.701Z,13.59
2022-10-06T03:00:05.518Z,13.56
2022-10-06T03:01:04.725Z,13.54
2022-10-06T03:02:04.804Z,13.56
2022-10-06T03:03:04.745Z,13.53
2022-10-06T03:04:04.690Z,13.54
2022-10-06T03:05:04.678Z,13.54
2022-10-06T03:06:04.719Z,13.54
2022-10-06T03:07:04.656Z,13.54
2022-10-06T03:08:04.641Z,13.54
2022-10-06T03:09:04.629Z,13.53
2022-10-06T03:10:04.635Z,13.53
2022-10-06T03:11:04.618Z,13.53
2022-10-06T03:12:04.630Z,13.52
2022-10-06T03:13:04.593Z,13.50
2022-10-06T03:14:04.580Z,13.50
2022-10-06T03:15:04.569Z,13.49
2022-10-06T03:16:04.622Z,13.47
2022-10-06T03:17:07.300Z,13.47
2022-10-06T03:18:04.536Z,13.46
2022-10-06T03:19:04.532Z,13.46
2022-10-06T03:20:04.517Z,13.44
2022-10-06T03:21:05.415Z,13.42
2022-10-06T03:22:04.497Z,13.42
2022-10-06T03:23:04.472Z,13.41
2022-10-06T03:24:04.574Z,13.39
2022-10-06T03:25:04.457Z,13.39
2022-10-06T03:26:04.447Z,13.35
2022-10-06T03:27:04.546Z,13.31
2022-10-06T03:28:04.462Z,13.35
2022-10-06T03:29:07.905Z,13.35
2022-10-06T03:30:05.415Z,13.33
2022-10-06T03:31:04.401Z,13.35
2022-10-06T03:32:04.382Z,13.37
2022-10-06T03:33:04.377Z,13.39
2022-10-06T03:34:04.366Z,13.42
2022-10-06T03:35:04.366Z,13.42
2022-10-06T03:36:04.336Z,13.44
2022-10-06T03:37:04.351Z,13.44
2022-10-06T03:38:04.329Z,13.44
2022-10-06T03:39:04.306Z,13.46
2022-10-06T03:40:04.292Z,13.44
2022-10-06T03:41:04.285Z,13.42
2022-10-06T03:42:04.293Z,13.44
2022-10-06T03:43:04.282Z,13.49
2022-10-06T03:44:04.260Z,13.49
2022-10-06T03:45:04.239Z,13.49
2022-10-06T03:46:04.233Z,13.49
2022-10-06T03:47:04.369Z,13.50
2022-10-06T03:48:04.239Z,13.50
2022-10-06T03:49:04.201Z,13.52
2022-10-06T03:50:04.206Z,13.50
2022-10-06T03:51:04.180Z,13.50
2022-10-06T03:52:04.162Z,13.49
2022-10-06T03:53:04.162Z,13.52
2022-10-06T03:54:04.146Z,13.52
2022-10-06T03:55:04.132Z,13.49
2022-10-06T03:56:04.123Z,13.52
2022-10-06T03:57:04.155Z,13.49
2022-10-06T03:58:04.144Z,13.50
2022-10-06T03:59:04.087Z,13.49
2022-10-06T04:00:04.073Z,13.50
2022-10-06T04:01:04.166Z,13.50
2022-10-06T04:02:04.107Z,13.50
2022-10-06T04:03:04.125Z,13.53
2022-10-06T04:04:04.076Z,13.52
2022-10-06T04:05:04.014Z,13.52
2022-10-06T04:06:04.017Z,13.52
2022-10-06T04:07:04.002Z,13.52
2022-10-06T04:08:04.962Z,13.50
2022-10-06T04:09:03.997Z,13.49
2022-10-06T04:10:03.972Z,13.50
2022-10-06T04:11:03.946Z,13.49
2022-10-06T04:12:03.934Z,13.49
2022-10-06T04:13:03.945Z,13.44
2022-10-06T04:14:03.915Z,13.41
2022-10-06T04:15:03.926Z,13.38
2022-10-06T04:16:03.942Z,13.33
2022-10-06T04:17:03.907Z,13.30
2022-10-06T04:18:03.906Z,13.28
2022-10-06T04:19:03.961Z,13.23
2022-10-06T04:20:03.859Z,13.20
2022-10-06T04:21:03.844Z,13.18
2022-10-06T04:22:03.836Z,13.16
2022-10-06T04:23:03.823Z,13.15
2022-10-06T04:24:03.834Z,13.09
2022-10-06T04:25:03.824Z,13.09
2022-10-06T04:26:03.781Z,13.09
2022-10-06T04:27:03.800Z,13.05
2022-10-06T04:28:03.808Z,13.05
2022-10-06T04:29:03.802Z,13.03
2022-10-06T04:30:03.744Z,13.03
2022-10-06T04:31:03.736Z,13.00
2022-10-06T04:32:03.769Z,12.97
2022-10-06T04:33:03.721Z,12.97
2022-10-06T04:34:03.776Z,12.95
2022-10-06T04:35:03.717Z,12.94
2022-10-06T04:36:03.683Z,12.93
2022-10-06T04:37:03.693Z,12.94
2022-10-06T04:38:03.655Z,12.93
2022-10-06T04:39:03.644Z,12.90
2022-10-06T04:40:03.642Z,12.87
2022-10-06T04:41:03.730Z,12.85
2022-10-06T04:42:03.624Z,12.83
2022-10-06T04:43:03.603Z,12.82
2022-10-06T04:44:03.597Z,12.80
2022-10-06T04:45:03.687Z,12.78
2022-10-06T04:46:18.228Z,12.78
2022-10-06T04:47:04.618Z,12.76
2022-10-06T04:48:03.546Z,12.76
2022-10-06T04:49:03.551Z,12.75
2022-10-06T04:50:03.527Z,12.72
2022-10-06T04:51:03.648Z,12.72
2022-10-06T04:52:03.526Z,12.73
2022-10-06T04:53:03.487Z,12.72
2022-10-06T04:54:03.492Z,12.75
2022-10-06T04:55:03.647Z,12.72
2022-10-06T04:56:03.457Z,12.70
2022-10-06T04:57:03.633Z,12.68
2022-10-06T04:58:03.440Z,12.65
2022-10-06T04:59:03.424Z,12.65
2022-10-06T05:00:08.847Z,12.62
2022-10-06T05:01:04.513Z,12.61
2022-10-06T05:02:03.428Z,12.60
2022-10-06T05:03:03.499Z,12.60
2022-10-06T05:04:03.430Z,12.58
2022-10-06T05:05:03.370Z,12.58
2022-10-06T05:06:03.366Z,12.57
2022-10-06T05:07:03.358Z,12.55
2022-10-06T05:08:03.558Z,12.54
2022-10-06T05:09:04.274Z,12.54
2022-10-06T05:10:03.304Z,12.50
2022-10-06T05:11:03.307Z,12.53
2022-10-06T05:12:03.304Z,12.50
2022-10-06T05:13:03.286Z,12.53
2022-10-06T05:14:03.330Z,12.49
2022-10-06T05:15:03.251Z,12.49
2022-10-06T05:16:03.266Z,12.46
2022-10-06T05:17:03.223Z,12.46
2022-10-06T05:18:03.208Z,12.42
2022-10-06T05:19:03.205Z,12.42
2022-10-06T05:20:03.214Z,12.39
2022-10-06T05:21:06.484Z,12.42
2022-10-06T05:22:03.156Z,12.40
2022-10-06T05:23:03.155Z,12.39
2022-10-06T05:24:03.159Z,12.37
2022-10-06T05:25:03.143Z,12.37
2022-10-06T05:26:03.155Z,12.36
2022-10-06T05:27:03.115Z,12.37
2022-10-06T05:28:03.210Z,12.35
2022-10-06T05:29:03.100Z,12.35
2022-10-06T05:30:03.078Z,12.31
2022-10-06T05:31:03.143Z,12.28
2022-10-06T05:32:03.198Z,12.27
2022-10-06T05:33:03.065Z,12.27
2022-10-06T05:34:03.061Z,12.25
2022-10-06T05:35:03.019Z,12.22
2022-10-06T05:36:03.014Z,12.22
2022-10-06T05:37:03.009Z,12.21
2022-10-06T05:38:03.023Z,12.20
2022-10-06T05:39:04.958Z,12.17
2022-10-06T05:40:02.974Z,12.22
2022-10-06T05:41:02.962Z,12.21
2022-10-06T05:42:02.940Z,12.17
2022-10-06T05:43:04.390Z,12.18
2022-10-06T05:44:02.947Z,12.17
2022-10-06T05:45:02.912Z,12.15
2022-10-06T05:46:02.930Z,12.15
2022-10-06T05:47:02.915Z,12.13
2022-10-06T05:48:02.983Z,12.12
2022-10-06T05:49:02.871Z,12.12
2022-10-06T05:50:02.852Z,12.10
2022-10-06T05:51:02.844Z,12.09
2022-10-06T05:52:02.856Z,12.09
2022-10-06T05:53:02.833Z,12.07
2022-10-06T05:54:03.608Z,12.07
2022-10-06T05:55:03.612Z,12.04
2022-10-06T05:56:02.785Z,12.04
2022-10-06T05:57:03.723Z,12.04
2022-10-06T05:58:03.264Z,12.03
2022-10-06T05:59:02.783Z,12.03
2022-10-06T06:00:03.084Z,12.03
2022-10-06T06:01:02.737Z,12.03
2022-10-06T06:02:02.799Z,12.03
2022-10-06T06:03:03.691Z,12.03
2022-10-06T06:04:02.711Z,12.02
2022-10-06T06:05:02.689Z,12.00
2022-10-06T06:06:02.696Z,12.02
2022-10-06T06:07:02.668Z,12.00
2022-10-06T06:08:02.679Z,11.97
2022-10-06T06:09:02.662Z,11.97
2022-10-06T06:10:02.648Z,11.97
2022-10-06T06:11:02.627Z,11.99
2022-10-06T06:12:02.631Z,11.97
2022-10-06T06:13:02.622Z,11.97
2022-10-06T06:14:02.591Z,11.99
2022-10-06T06:15:02.586Z,11.97
2022-10-06T06:16:02.552Z,12.00
2022-10-06T06:17:02.651Z,11.99
2022-10-06T06:18:02.561Z,11.99
2022-10-06T06:19:02.538Z,11.97
2022-10-06T06:20:02.512Z,11.99
2022-10-06T06:21:02.499Z,11.97
2022-10-06T06:22:02.491Z,11.97
2022-10-06T06:23:02.482Z,11.97
2022-10-06T06:24:02.514Z,11.97
2022-10-06T06:25:03.290Z,11.99
2022-10-06T06:26:02.903Z,11.99
2022-10-06T06:27:02.470Z,12.02
2022-10-06T06:28:02.479Z,12.04
2022-10-06T06:29:02.439Z,12.06
2022-10-06T06:30:02.408Z,12.10
2022-10-06T06:31:02.481Z,12.13
2022-10-06T06:32:02.416Z,12.17
2022-10-06T06:33:02.425Z,12.20
2022-10-06T06:34:02.370Z,12.18
2022-10-06T06:35:02.353Z,12.21
2022-10-06T06:36:02.364Z,12.21
2022-10-06T06:37:07.533Z,12.21
2022-10-06T06:38:03.373Z,12.24
2022-10-06T06:39:02.312Z,12.25
2022-10-06T06:40:02.324Z,12.28
2022-10-06T06:41:02.297Z,12.29
2022-10-06T06:42:02.277Z,12.31
2022-10-06T06:43:02.266Z,12.29
2022-10-06T06:44:02.262Z,12.29
2022-10-06T06:45:02.293Z,12.29
2022-10-06T06:46:02.313Z,12.35
2022-10-06T06:47:02.221Z,12.36
2022-10-06T06:48:02.417Z,12.39
2022-10-06T06:49:02.218Z,12.40
2022-10-06T06:50:02.190Z,12.43
2022-10-06T06:51:02.192Z,12.46
2022-10-06T06:52:02.167Z,12.49
2022-10-06T06:53:02.147Z,12.49
2022-10-06T06:54:02.180Z,12.50
2022-10-06T06:55:02.142Z,12.53
2022-10-06T06:56:02.135Z,12.55
2022-10-06T06:57:02.114Z,12.57
2022-10-06T06:58:02.143Z,12.61
2022-10-06T06:59:02.082Z,12.64
2022-10-06T07:00:02.071Z,12.68
2022-10-06T07:01:02.144Z,12.72
2022-10-06T07:02:02.101Z,12.72
2022-10-06T07:03:02.066Z,12.73
2022-10-06T07:04:02.055Z,12.75
2022-10-06T07:05:02.026Z,12.73
2022-10-06T07:06:02.021Z,12.73
2022-10-06T07:07:02.006Z,12.70
2022-10-06T07:08:01.986Z,12.70
2022-10-06T07:09:01.998Z,12.70
2022-10-06T07:10:01.968Z,12.70
2022-10-06T07:11:01.969Z,12.68
2022-10-06T07:12:01.954Z,12.67
2022-10-06T07:13:01.938Z,12.68
2022-10-06T07:14:01.922Z,12.67
2022-10-06T07:15:01.943Z,12.65
2022-10-06T07:16:01.939Z,12.64
2022-10-06T07:17:01.892Z,12.64
2022-10-06T07:18:01.888Z,12.65
2022-10-06T07:19:01.908Z,12.68
2022-10-06T07:20:01.895Z,12.70
2022-10-06T07:21:01.855Z,12.72
2022-10-06T07:22:01.840Z,12.73
2022-10-06T07:23:01.836Z,12.72
2022-10-06T07:24:01.820Z,12.72
2022-10-06T07:25:01.839Z,12.73
2022-10-06T07:26:01.799Z,12.76
2022-10-06T07:27:01.791Z,12.78
2022-10-06T07:28:01.795Z,12.79
2022-10-06T07:29:01.772Z,12.80
2022-10-06T07:30:02.806Z,12.82
2022-10-06T07:31:01.851Z,12.82
2022-10-06T07:32:01.750Z,12.83
2022-10-06T07:33:01.710Z,12.85
2022-10-06T07:34:01.698Z,12.85
2022-10-06T07:35:01.714Z,12.87
2022-10-06T07:36:01.731Z,12.87
2022-10-06T07:37:04.193Z,12.93
2022-10-06T07:38:01.654Z,12.93
2022-10-06T07:39:02.611Z,12.94
2022-10-06T07:40:01.646Z,12.97
2022-10-06T07:42:02.667Z,13.03
2022-10-06T07:43:01.619Z,13.04
2022-10-06T07:44:05.806Z,13.04
2022-10-06T07:45:02.608Z,13.08
2022-10-06T07:46:01.651Z,13.08
2022-10-06T07:47:01.557Z,13.09
2022-10-06T07:48:01.566Z,13.12
2022-10-06T07:49:01.557Z,13.12
2022-10-06T07:50:01.516Z,13.13
2022-10-06T07:51:01.519Z,13.18
2022-10-06T07:52:01.635Z,13.20
2022-10-06T07:53:01.538Z,13.23
2022-10-06T07:54:01.484Z,13.27
2022-10-06T07:55:01.465Z,13.30
2022-10-06T07:56:01.472Z,13.33
2022-10-06T07:57:01.452Z,13.35
2022-10-06T07:58:01.466Z,13.37
2022-10-06T07:59:01.447Z,13.39
2022-10-06T08:00:03.362Z,13.42
2022-10-06T08:01:01.435Z,13.44
2022-10-06T08:02:01.528Z,13.46
2022-10-06T08:03:01.543Z,13.47
2022-10-06T08:04:01.382Z,13.47
2022-10-06T08:05:01.347Z,13.50
2022-10-06T08:06:01.410Z,13.49
2022-10-06T08:07:01.351Z,13.52
2022-10-06T08:08:01.337Z,13.53
2022-10-06T08:09:01.324Z,13.56
2022-10-06T08:10:01.309Z,13.60
2022-10-06T08:11:01.948Z,13.62
2022-10-06T08:12:01.352Z,13.67
2022-10-06T08:13:01.286Z,13.67
2022-10-06T08:14:01.266Z,13.68
2022-10-06T08:15:04.546Z,13.70
2022-10-06T08:16:02.282Z,13.71
2022-10-06T08:17:01.302Z,13.71
2022-10-06T08:18:01.234Z,13.71
2022-10-06T08:19:01.243Z,13.74
2022-10-06T08:20:01.216Z,13.75
2022-10-06T08:21:01.200Z,13.78
2022-10-06T08:22:04.835Z,13.81
2022-10-06T08:23:01.177Z,13.85
2022-10-06T08:24:01.188Z,13.87
2022-10-06T08:25:06.321Z,13.90
2022-10-06T08:26:02.138Z,13.93
2022-10-06T08:27:01.140Z,13.97
2022-10-06T08:28:01.141Z,13.99
2022-10-06T08:29:01.094Z,14.03
2022-10-06T08:30:01.117Z,14.03
2022-10-06T08:31:01.138Z,14.04
2022-10-06T08:32:01.129Z,14.05
2022-10-06T08:33:01.139Z,14.08
2022-10-06T08:34:01.596Z,14.10
2022-10-06T08:35:01.042Z,14.12
2022-10-06T08:36:01.041Z,14.15
2022-10-06T08:37:19.375Z,14.17
2022-10-06T08:38:02.003Z,14.20
2022-10-06T08:39:01.768Z,14.23
2022-10-06T08:40:01.118Z,14.25
2022-10-06T08:41:00.961Z,14.26
2022-10-06T08:42:00.952Z,14.29
2022-10-06T08:43:00.942Z,14.32
2022-10-06T08:44:00.947Z,14.35
2022-10-06T08:45:00.958Z,14.37
2022-10-06T08:46:00.916Z,14.40
2022-10-06T08:47:00.890Z,14.41
2022-10-06T08:48:00.881Z,14.47
2022-10-06T08:49:00.860Z,14.50
2022-10-06T08:50:01.201Z,14.51
2022-10-06T08:51:00.839Z,14.53
2022-10-06T08:52:02.281Z,14.54
2022-10-06T08:53:00.810Z,14.58
2022-10-06T08:54:00.847Z,14.59
2022-10-06T08:55:01.083Z,14.60
2022-10-06T08:56:00.802Z,14.62
2022-10-06T08:57:00.865Z,14.65
2022-10-06T08:58:01.794Z,14.65
2022-10-06T08:59:00.754Z,14.68
2022-10-06T09:00:00.754Z,14.72
2022-10-06T09:01:00.796Z,14.77
2022-10-06T09:02:01.732Z,14.79
2022-10-06T09:03:00.864Z,14.82
2022-10-06T09:04:00.698Z,14.86
2022-10-06T09:05:00.694Z,14.88
2022-10-06T09:06:00.715Z,14.92
2022-10-06T09:07:00.666Z,14.96
2022-10-06T09:08:00.698Z,14.99
2022-10-06T09:09:00.644Z,15.02
2022-10-06T09:10:00.637Z,15.04
2022-10-06T09:11:00.618Z,15.06
2022-10-06T09:12:00.619Z,15.10
2022-10-06T09:13:00.663Z,15.10
2022-10-06T09:14:00.621Z,15.11
2022-10-06T09:15:00.587Z,15.15
2022-10-06T09:16:00.612Z,15.18
2022-10-06T09:17:00.762Z,15.22
2022-10-06T09:18:00.545Z,15.27
2022-10-06T09:19:09.243Z,15.31
2022-10-06T09:20:01.522Z,15.35
2022-10-06T09:21:00.515Z,15.39
2022-10-06T09:22:00.548Z,15.42
2022-10-06T09:23:00.488Z,15.42
2022-10-06T09:24:00.510Z,15.40
2022-10-06T09:25:00.480Z,15.39
2022-10-06T09:26:01.415Z,15.35
2022-10-06T09:27:00.466Z,15.31
2022-10-06T09:28:00.485Z,15.31
2022-10-06T09:29:00.456Z,15.35
2022-10-06T09:30:00.452Z,15.39
2022-10-06T09:31:00.459Z,15.42
2022-10-06T09:32:00.402Z,15.46
2022-10-06T09:33:00.377Z,15.51
2022-10-06T09:34:00.362Z,15.57
2022-10-06T09:35:00.368Z,15.59
2022-10-06T09:36:00.631Z,15.62
2022-10-06T09:37:02.301Z,15.67
2022-10-06T09:38:04.405Z,15.68
2022-10-06T09:39:02.292Z,15.68
2022-10-06T09:40:00.307Z,15.72
2022-10-06T09:41:01.265Z,15.73
2022-10-06T09:42:00.306Z,15.75
2022-10-06T09:43:00.805Z,15.68
2022-10-06T09:44:00.308Z,15.67
2022-10-06T09:45:00.250Z,15.72
2022-10-06T09:46:00.291Z,15.75
2022-10-06T09:47:00.217Z,15.75
2022-10-06T09:48:00.218Z,15.72
2022-10-06T09:49:00.200Z,15.73
2022-10-06T09:50:00.242Z,15.77
2022-10-06T09:51:00.233Z,15.79
2022-10-06T09:52:00.336Z,15.82
2022-10-06T09:53:00.162Z,15.84
2022-10-06T09:54:01.101Z,15.82
2022-10-06T09:55:00.129Z,15.82
2022-10-06T09:56:00.175Z,15.80
2022-10-06T09:57:00.282Z,15.80
2022-10-06T09:58:01.068Z,15.86
2022-10-06T09:59:00.097Z,15.83
2022-10-06T10:00:00.333Z,15.86
2022-10-06T10:01:01.140Z,15.91
2022-10-06T10:02:00.112Z,15.97
2022-10-06T10:03:00.115Z,16.02
2022-10-06T10:04:19.267Z,16.08
2022-10-06T10:05:01.045Z,16.15
2022-10-06T10:06:00.035Z,16.21
2022-10-06T10:07:00.146Z,16.29
2022-10-06T10:08:00.375Z,16.32
2022-10-06T10:08:59.983Z,16.33
2022-10-06T10:10:00.092Z,16.36
2022-10-06T10:10:59.961Z,16.38
2022-10-06T10:12:01.426Z,16.36
2022-10-06T10:13:00.629Z,16.31
2022-10-06T10:14:00.450Z,16.31
2022-10-06T10:15:00.385Z,16.23
2022-10-06T10:16:00.408Z,16.10
2022-10-06T10:16:59.907Z,16.04
2022-10-06T10:17:59.891Z,16.04
2022-10-06T10:18:59.875Z,16.05
2022-10-06T10:20:00.191Z,16.10
2022-10-06T10:20:59.903Z,16.09
2022-10-06T10:22:00.114Z,16.12
2022-10-06T10:22:59.862Z,16.15
2022-10-06T10:24:01.268Z,16.17
2022-10-06T10:24:59.874Z,16.24
2022-10-06T10:25:59.851Z,16.29
2022-10-06T10:26:59.782Z,16.38
2022-10-06T10:27:59.837Z,16.43
2022-10-06T10:29:00.569Z,16.53
2022-10-06T10:30:00.740Z,16.57
2022-10-06T10:30:59.989Z,16.58
2022-10-06T10:32:01.260Z,16.61
2022-10-06T10:33:00.101Z,16.65
2022-10-06T10:34:12.058Z,16.69
2022-10-06T10:35:00.842Z,16.68
2022-10-06T10:36:01.665Z,16.69
2022-10-06T10:37:00.127Z,16.69
2022-10-06T10:37:59.684Z,16.74
2022-10-06T10:39:00.187Z,16.78
2022-10-06T10:39:59.673Z,16.87
2022-10-06T10:40:59.675Z,16.91
2022-10-06T10:42:00.321Z,16.96
2022-10-06T10:42:59.674Z,16.99
2022-10-06T10:44:03.993Z,17.01
2022-10-06T10:44:59.767Z,17.01
2022-10-06T10:46:00.416Z,17.01
2022-10-06T10:46:59.655Z,17.05
2022-10-06T10:47:59.561Z,17.11
2022-10-06T10:48:59.554Z,17.16
2022-10-06T10:49:59.602Z,17.24
2022-10-06T10:50:59.536Z,17.27
2022-10-06T10:51:59.690Z,17.29
2022-10-06T10:53:00.943Z,17.20
2022-10-06T10:53:59.494Z,17.11
2022-10-06T10:55:00.422Z,17.09
2022-10-06T10:55:59.812Z,17.11
2022-10-06T10:56:59.451Z,17.14
2022-10-06T10:57:59.561Z,17.16
2022-10-06T10:58:59.428Z,17.22
2022-10-06T10:59:59.428Z,17.22
2022-10-06T11:00:59.438Z,17.20
2022-10-06T11:01:59.483Z,17.22
2022-10-06T11:02:59.390Z,17.16
2022-10-06T11:03:59.388Z,17.14
2022-10-06T11:04:59.593Z,17.16
2022-10-06T11:05:59.364Z,17.23
2022-10-06T11:06:59.441Z,17.29
2022-10-06T11:07:59.340Z,17.30
2022-10-06T11:08:59.321Z,17.31
2022-10-06T11:09:59.442Z,17.31
2022-10-06T11:10:59.317Z,17.29
2022-10-06T11:11:59.292Z,17.22
2022-10-06T11:12:59.277Z,17.11
2022-10-06T11:13:59.276Z,17.09
2022-10-06T11:15:00.001Z,17.11
2022-10-06T11:15:59.296Z,17.14
2022-10-06T11:16:59.238Z,17.20
2022-10-06T11:17:59.213Z,17.23
2022-10-06T11:18:59.234Z,17.26
2022-10-06T11:19:59.196Z,17.30
2022-10-06T11:20:59.224Z,17.26
2022-10-06T11:21:59.182Z,17.29
2022-10-06T11:22:59.163Z,17.30
2022-10-06T11:23:59.166Z,17.33
2022-10-06T11:24:59.379Z,17.36
2022-10-06T11:25:59.125Z,17.38
2022-10-06T11:26:59.147Z,17.41
2022-10-06T11:27:59.168Z,17.44
2022-10-06T11:28:59.095Z,17.41
2022-10-06T11:29:59.356Z,17.42
2022-10-06T11:31:00.099Z,17.41
2022-10-06T11:31:59.247Z,17.42
2022-10-06T11:32:59.138Z,17.41
2022-10-06T11:33:59.099Z,17.39
2022-10-06T11:34:59.121Z,17.41
2022-10-06T11:35:59.792Z,17.42
2022-10-06T11:36:59.093Z,17.45
2022-10-06T11:37:59.013Z,17.46
2022-10-06T11:38:59.049Z,17.46
2022-10-06T11:39:59.317Z,17.45
2022-10-06T11:40:59.076Z,17.45
2022-10-06T11:41:59.911Z,17.41
2022-10-06T11:42:59.011Z,17.41
2022-10-06T11:43:59.155Z,17.39
2022-10-06T11:44:59.258Z,17.41
2022-10-06T11:45:59.038Z,17.41
2022-10-06T11:46:58.966Z,17.41
2022-10-06T11:47:58.957Z,17.44
2022-10-06T11:48:58.931Z,17.46
2022-10-06T11:49:58.876Z,17.46
2022-10-06T11:50:59.015Z,17.46
2022-10-06T11:52:00.330Z,17.49
2022-10-06T11:52:58.953Z,17.52
2022-10-06T11:53:59.768Z,17.59
2022-10-06T11:54:59.182Z,17.63
2022-10-06T11:55:58.832Z,17.67
2022-10-06T11:56:58.787Z,17.70
2022-10-06T11:57:58.777Z,17.74
2022-10-06T11:58:58.764Z,17.82
2022-10-06T11:59:58.777Z,17.90
2022-10-06T12:00:58.747Z,17.98
2022-10-06T12:01:58.945Z,18.07
2022-10-06T12:02:58.838Z,18.15
2022-10-06T12:03:58.718Z,18.20
2022-10-06T12:04:59.016Z,18.22
2022-10-06T12:06:00.172Z,18.23
2022-10-06T12:06:58.708Z,18.25
2022-10-06T12:07:59.533Z,18.28
2022-10-06T12:08:59.145Z,18.29
2022-10-06T12:09:58.852Z,18.34
2022-10-06T12:10:59.131Z,18.40
2022-10-06T12:11:58.633Z,18.43
2022-10-06T12:13:07.318Z,18.45
2022-10-06T12:15:06.488Z,18.56
2022-10-06T12:17:05.675Z,18.92
2022-10-06T12:17:08.608Z,18.73
2022-10-06T12:17:15.318Z,19.18
2022-10-06T12:17:59.551Z,19.47
2022-10-06T12:18:58.562Z,19.70
2022-10-06T12:19:59.379Z,19.91
2022-10-06T12:20:58.532Z,20.06
2022-10-06T12:21:58.534Z,20.25
2022-10-06T12:22:58.499Z,20.40
2022-10-06T12:23:58.497Z,20.55
2022-10-06T12:24:58.795Z,20.60
2022-10-06T12:25:58.492Z,20.70
2022-10-06T12:26:58.498Z,20.66
2022-10-06T12:28:00.418Z,20.63
2022-10-06T12:28:58.434Z,20.60
2022-10-06T12:29:58.638Z,20.44
2022-10-06T12:30:58.941Z,20.18
2022-10-06T12:31:58.399Z,19.95
2022-10-06T12:32:58.598Z,19.85
2022-10-06T12:33:59.828Z,19.85
2022-10-06T12:35:00.133Z,19.82
2022-10-06T12:35:59.333Z,19.86
2022-10-06T12:36:59.817Z,19.79
2022-10-06T12:37:58.375Z,19.67
2022-10-06T12:38:58.336Z,19.49
2022-10-06T12:39:58.331Z,19.18
2022-10-06T12:40:58.538Z,19.02
2022-10-06T12:41:58.402Z,18.98
2022-10-06T12:42:58.286Z,18.92
2022-10-06T12:43:59.253Z,18.77
2022-10-06T12:44:58.511Z,18.66
2022-10-06T12:45:58.374Z,18.62
2022-10-06T12:46:58.231Z,18.60
2022-10-06T12:47:58.221Z,18.56
2022-10-06T12:48:59.182Z,18.56
2022-10-06T12:49:58.205Z,18.58
2022-10-06T12:50:58.209Z,18.58
2022-10-06T12:52:00.674Z,18.56
2022-10-06T12:52:58.184Z,18.53